sensor_id;sensor_type;location;lat;lon;timestamp;pressure;altitude;pressure_sealevel;temperature;humidity
79131;BME280;72396;45.194;9.142;2023-12-29T00:01:57;101602.19;;;10.76;67.44
79131;BME280;72396;45.194;9.142;2023-12-29T00:04:25;101592.47;;;10.78;67.56
79131;BME280;72396;45.194;9.142;2023-12-29T00:06:50;101603.19;;;10.69;67.61
79131;BME280;72396;45.194;9.142;2023-12-29T00:09:15;101607.59;;;10.70;68.08
79131;BME280;72396;45.194;9.142;2023-12-29T00:11:41;101589.22;;;10.65;67.84
79131;BME280;72396;45.194;9.142;2023-12-29T00:14:06;101598.72;;;10.74;67.51
79131;BME280;72396;45.194;9.142;2023-12-29T00:16:31;101589.75;;;10.82;67.65
79131;BME280;72396;45.194;9.142;2023-12-29T00:18:57;101581.97;;;10.75;67.63
79131;BME280;72396;45.194;9.142;2023-12-29T00:21:22;101592.47;;;10.77;67.50
79131;BME280;72396;45.194;9.142;2023-12-29T00:23:48;101584.78;;;10.68;67.77
79131;BME280;72396;45.194;9.142;2023-12-29T00:26:16;101574.06;;;10.75;67.56
79131;BME280;72396;45.194;9.142;2023-12-29T00:28:45;101579.13;;;10.85;67.22
79131;BME280;72396;45.194;9.142;2023-12-29T00:31:14;101572.94;;;10.87;67.42
79131;BME280;72396;45.194;9.142;2023-12-29T00:33:43;101567.75;;;10.83;67.60
79131;BME280;72396;45.194;9.142;2023-12-29T00:36:17;101580.84;;;10.89;67.30
79131;BME280;72396;45.194;9.142;2023-12-29T00:38:42;101577.47;;;10.80;67.43
79131;BME280;72396;45.194;9.142;2023-12-29T00:41:08;101575.72;;;10.81;67.56
79131;BME280;72396;45.194;9.142;2023-12-29T00:43:34;101551.31;;;10.68;67.45
79131;BME280;72396;45.194;9.142;2023-12-29T00:46:06;101560.97;;;10.71;67.53
79131;BME280;72396;45.194;9.142;2023-12-29T00:48:32;101555.69;;;10.71;67.81
79131;BME280;72396;45.194;9.142;2023-12-29T00:50:57;101556.56;;;10.71;67.84
79131;BME280;72396;45.194;9.142;2023-12-29T00:53:22;101530.44;;;10.59;67.89
79131;BME280;72396;45.194;9.142;2023-12-29T00:55:48;101559.91;;;10.79;67.35
79131;BME280;72396;45.194;9.142;2023-12-29T00:58:13;101552.16;;;10.72;67.27
79131;BME280;72396;45.194;9.142;2023-12-29T01:00:39;101547.78;;;10.69;68.09
79131;BME280;72396;45.194;9.142;2023-12-29T01:03:05;101550.25;;;10.78;67.59
79131;BME280;72396;45.194;9.142;2023-12-29T01:05:30;101550.28;;;10.77;67.83
79131;BME280;72396;45.194;9.142;2023-12-29T01:07:55;101544.22;;;10.73;67.44
79131;BME280;72396;45.194;9.142;2023-12-29T01:10:21;101556.19;;;10.90;67.20
79131;BME280;72396;45.194;9.142;2023-12-29T01:12:46;101560.75;;;10.82;67.86
79131;BME280;72396;45.194;9.142;2023-12-29T01:15:12;101557.09;;;10.89;67.59
79131;BME280;72396;45.194;9.142;2023-12-29T01:17:38;101552.75;;;10.85;67.57
79131;BME280;72396;45.194;9.142;2023-12-29T01:20:03;101554.63;;;10.79;67.93
79131;BME280;72396;45.194;9.142;2023-12-29T01:22:29;101553.88;;;10.73;67.68
79131;BME280;72396;45.194;9.142;2023-12-29T01:24:55;101564.22;;;10.84;67.66
79131;BME280;72396;45.194;9.142;2023-12-29T01:27:20;101558.03;;;10.85;67.83
79131;BME280;72396;45.194;9.142;2023-12-29T01:29:46;101558.91;;;10.87;67.65
79131;BME280;72396;45.194;9.142;2023-12-29T01:32:11;101557.09;;;10.87;67.62
79131;BME280;72396;45.194;9.142;2023-12-29T01:34:36;101554.56;;;10.83;68.28
79131;BME280;72396;45.194;9.142;2023-12-29T01:37:02;101550.03;;;10.89;67.97
79131;BME280;72396;45.194;9.142;2023-12-29T01:39:32;101560.75;;;10.82;67.88
79131;BME280;72396;45.194;9.142;2023-12-29T01:41:58;101552.88;;;10.80;68.25
79131;BME280;72396;45.194;9.142;2023-12-29T01:44:23;101552.88;;;10.78;68.22
79131;BME280;72396;45.194;9.142;2023-12-29T01:46:50;101548.34;;;10.85;68.32
79131;BME280;72396;45.194;9.142;2023-12-29T01:49:17;101546.63;;;10.84;67.86
79131;BME280;72396;45.194;9.142;2023-12-29T01:51:44;101543.91;;;10.87;68.09
79131;BME280;72396;45.194;9.142;2023-12-29T01:54:12;101551.00;;;10.84;68.40
79131;BME280;72396;45.194;9.142;2023-12-29T01:56:38;101556.25;;;10.87;67.88
79131;BME280;72396;45.194;9.142;2023-12-29T01:59:05;101559.75;;;10.87;68.34
79131;BME280;72396;45.194;9.142;2023-12-29T02:01:30;101553.63;;;10.85;68.41
79131;BME280;72396;45.194;9.142;2023-12-29T02:03:56;101550.16;;;10.83;68.22
79131;BME280;72396;45.194;9.142;2023-12-29T02:06:22;101562.31;;;10.90;68.14
79131;BME280;72396;45.194;9.142;2023-12-29T02:08:49;101547.63;;;10.78;68.57
79131;BME280;72396;45.194;9.142;2023-12-29T02:11:14;101552.81;;;10.82;68.35
79131;BME280;72396;45.194;9.142;2023-12-29T02:13:41;101538.66;;;10.86;68.37
79131;BME280;72396;45.194;9.142;2023-12-29T02:16:21;101542.19;;;10.85;67.97
79131;BME280;72396;45.194;9.142;2023-12-29T02:18:49;101531.75;;;10.80;67.97
79131;BME280;72396;45.194;9.142;2023-12-29T02:21:15;101537.00;;;10.82;68.07
79131;BME280;72396;45.194;9.142;2023-12-29T02:23:41;101534.25;;;10.86;68.20
79131;BME280;72396;45.194;9.142;2023-12-29T02:26:10;101530.53;;;10.97;68.32
79131;BME280;72396;45.194;9.142;2023-12-29T02:28:40;101526.38;;;10.85;68.34
79131;BME280;72396;45.194;9.142;2023-12-29T02:31:17;101530.78;;;10.84;68.62
79131;BME280;72396;45.194;9.142;2023-12-29T02:33:45;101546.63;;;10.83;68.38
79131;BME280;72396;45.194;9.142;2023-12-29T02:36:12;101537.66;;;10.91;67.98
79131;BME280;72396;45.194;9.142;2023-12-29T02:38:39;101536.00;;;10.86;68.50
79131;BME280;72396;45.194;9.142;2023-12-29T02:41:05;101534.34;;;10.82;68.27
79131;BME280;72396;45.194;9.142;2023-12-29T02:43:31;101537.00;;;10.82;68.26
79131;BME280;72396;45.194;9.142;2023-12-29T02:45:57;101531.63;;;10.85;68.38
79131;BME280;72396;45.194;9.142;2023-12-29T02:48:23;101519.31;;;10.85;68.11
79131;BME280;72396;45.194;9.142;2023-12-29T02:50:48;101505.41;;;10.78;68.50
79131;BME280;72396;45.194;9.142;2023-12-29T02:53:14;101514.97;;;10.84;68.22
79131;BME280;72396;45.194;9.142;2023-12-29T02:55:39;101510.59;;;10.82;68.39
79131;BME280;72396;45.194;9.142;2023-12-29T02:58:04;101503.53;;;10.84;68.36
79131;BME280;72396;45.194;9.142;2023-12-29T03:00:30;101505.25;;;10.85;68.05
79131;BME280;72396;45.194;9.142;2023-12-29T03:02:55;101503.47;;;10.87;68.25
79131;BME280;72396;45.194;9.142;2023-12-29T03:05:20;101491.22;;;10.83;68.21
79131;BME280;72396;45.194;9.142;2023-12-29T03:07:46;101489.41;;;10.85;68.17
79131;BME280;72396;45.194;9.142;2023-12-29T03:10:11;101499.88;;;10.89;67.67
79131;BME280;72396;45.194;9.142;2023-12-29T03:12:36;101488.56;;;10.84;67.98
79131;BME280;72396;45.194;9.142;2023-12-29T03:15:02;101492.91;;;10.87;67.79
79131;BME280;72396;45.194;9.142;2023-12-29T03:17:28;101496.44;;;10.86;68.27
79131;BME280;72396;45.194;9.142;2023-12-29T03:19:53;101477.28;;;10.77;67.73
79131;BME280;72396;45.194;9.142;2023-12-29T03:22:18;101492.06;;;10.85;67.85
79131;BME280;72396;45.194;9.142;2023-12-29T03:24:44;101491.03;;;10.92;67.90
79131;BME280;72396;45.194;9.142;2023-12-29T03:27:09;101486.69;;;10.89;67.53
79131;BME280;72396;45.194;9.142;2023-12-29T03:29:35;101490.31;;;10.85;67.93
79131;BME280;72396;45.194;9.142;2023-12-29T03:32:01;101473.75;;;10.77;68.23
79131;BME280;72396;45.194;9.142;2023-12-29T03:34:26;101465.84;;;10.77;67.98
79131;BME280;72396;45.194;9.142;2023-12-29T03:36:51;101479.84;;;10.80;68.19
79131;BME280;72396;45.194;9.142;2023-12-29T03:39:17;101475.47;;;10.79;68.06
79131;BME280;72396;45.194;9.142;2023-12-29T03:41:42;101467.63;;;10.76;67.91
79131;BME280;72396;45.194;9.142;2023-12-29T03:44:08;101464.09;;;10.77;68.07
79131;BME280;72396;45.194;9.142;2023-12-29T03:46:33;101463.94;;;10.84;68.29
79131;BME280;72396;45.194;9.142;2023-12-29T03:48:59;101456.94;;;10.83;67.78
79131;BME280;72396;45.194;9.142;2023-12-29T03:51:24;101447.19;;;10.85;67.71
79131;BME280;72396;45.194;9.142;2023-12-29T03:53:49;101441.94;;;10.85;67.38
79131;BME280;72396;45.194;9.142;2023-12-29T03:56:17;101444.44;;;10.91;67.46
79131;BME280;72396;45.194;9.142;2023-12-29T03:58:43;101442.66;;;10.91;67.34
79131;BME280;72396;45.194;9.142;2023-12-29T04:01:13;101429.50;;;10.90;67.84
79131;BME280;72396;45.194;9.142;2023-12-29T04:03:39;101426.81;;;10.91;67.49
79131;BME280;72396;45.194;9.142;2023-12-29T04:06:05;101430.97;;;11.03;67.22
79131;BME280;72396;45.194;9.142;2023-12-29T04:08:31;101435.56;;;10.93;67.29
79131;BME280;72396;45.194;9.142;2023-12-29T04:10:56;101435.53;;;10.95;67.60
79131;BME280;72396;45.194;9.142;2023-12-29T04:13:22;101432.81;;;10.98;66.97
79131;BME280;72396;45.194;9.142;2023-12-29T04:15:47;101427.41;;;11.04;67.11
79131;BME280;72396;45.194;9.142;2023-12-29T04:18:13;101421.44;;;10.96;66.65
79131;BME280;72396;45.194;9.142;2023-12-29T04:20:38;101426.72;;;10.96;66.93
79131;BME280;72396;45.194;9.142;2023-12-29T04:23:06;101428.38;;;11.00;66.57
79131;BME280;72396;45.194;9.142;2023-12-29T04:25:32;101427.53;;;10.98;67.04
79131;BME280;72396;45.194;9.142;2023-12-29T04:27:57;101418.06;;;10.91;66.52
79131;BME280;72396;45.194;9.142;2023-12-29T04:30:22;101431.06;;;10.99;66.63
79131;BME280;72396;45.194;9.142;2023-12-29T04:32:48;101423.25;;;10.94;66.98
79131;BME280;72396;45.194;9.142;2023-12-29T04:35:13;101418.06;;;10.91;67.01
79131;BME280;72396;45.194;9.142;2023-12-29T04:37:40;101422.34;;;10.95;66.81
79131;BME280;72396;45.194;9.142;2023-12-29T04:40:06;101415.34;;;10.94;66.88
79131;BME280;72396;45.194;9.142;2023-12-29T04:42:32;101424.00;;;10.99;66.78
79131;BME280;72396;45.194;9.142;2023-12-29T04:44:57;101426.78;;;10.94;66.69
79131;BME280;72396;45.194;9.142;2023-12-29T04:47:22;101427.81;;;10.87;67.52
79131;BME280;72396;45.194;9.142;2023-12-29T04:49:48;101411.91;;;10.90;67.05
79131;BME280;72396;45.194;9.142;2023-12-29T04:52:13;101422.28;;;10.98;67.07
79131;BME280;72396;45.194;9.142;2023-12-29T04:54:38;101420.53;;;10.97;66.66
79131;BME280;72396;45.194;9.142;2023-12-29T04:57:04;101414.69;;;10.84;67.35
79131;BME280;72396;45.194;9.142;2023-12-29T04:59:29;101423.44;;;10.86;67.74
79131;BME280;72396;45.194;9.142;2023-12-29T05:01:55;101421.59;;;10.90;67.48
79131;BME280;72396;45.194;9.142;2023-12-29T05:04:20;101417.09;;;10.93;66.98
79131;BME280;72396;45.194;9.142;2023-12-29T05:06:46;101417.06;;;10.95;66.77
79131;BME280;72396;45.194;9.142;2023-12-29T05:09:11;101426.69;;;10.98;66.94
79131;BME280;72396;45.194;9.142;2023-12-29T05:11:36;101404.97;;;10.85;67.11
79131;BME280;72396;45.194;9.142;2023-12-29T05:14:02;101426.78;;;10.93;66.54
79131;BME280;72396;45.194;9.142;2023-12-29T05:16:27;101421.41;;;10.98;67.07
79131;BME280;72396;45.194;9.142;2023-12-29T05:18:52;101418.91;;;10.91;66.80
79131;BME280;72396;45.194;9.142;2023-12-29T05:21:18;101411.22;;;10.82;67.13
79131;BME280;72396;45.194;9.142;2023-12-29T05:23:47;101416.53;;;10.80;67.47
79131;BME280;72396;45.194;9.142;2023-12-29T05:26:14;101411.25;;;10.80;67.51
79131;BME280;72396;45.194;9.142;2023-12-29T05:28:39;101427.97;;;10.79;67.76
79131;BME280;72396;45.194;9.142;2023-12-29T05:31:05;101428.72;;;10.85;67.10
79131;BME280;72396;45.194;9.142;2023-12-29T05:33:30;101429.81;;;10.76;68.01
79131;BME280;72396;45.194;9.142;2023-12-29T05:35:56;101432.34;;;10.80;67.21
79131;BME280;72396;45.194;9.142;2023-12-29T05:38:22;101426.25;;;10.78;67.29
79131;BME280;72396;45.194;9.142;2023-12-29T05:40:47;101427.97;;;10.79;68.12
79131;BME280;72396;45.194;9.142;2023-12-29T05:43:14;101437.50;;;10.87;67.24
79131;BME280;72396;45.194;9.142;2023-12-29T05:45:39;101437.53;;;10.85;67.39
79131;BME280;72396;45.194;9.142;2023-12-29T05:48:05;101411.84;;;10.52;67.87
79131;BME280;72396;45.194;9.142;2023-12-29T05:50:31;101427.50;;;10.60;67.95
79131;BME280;72396;45.194;9.142;2023-12-29T05:52:56;101432.44;;;10.77;67.67
79131;BME280;72396;45.194;9.142;2023-12-29T05:55:21;101437.84;;;10.71;67.85
79131;BME280;72396;45.194;9.142;2023-12-29T05:57:47;101440.34;;;10.77;67.61
79131;BME280;72396;45.194;9.142;2023-12-29T06:00:12;101431.59;;;10.75;67.73
79131;BME280;72396;45.194;9.142;2023-12-29T06:02:43;101447.53;;;10.69;68.30
79131;BME280;72396;45.194;9.142;2023-12-29T06:05:11;101424.75;;;10.66;68.42
79131;BME280;72396;45.194;9.142;2023-12-29T06:07:37;101428.13;;;10.73;67.99
79131;BME280;72396;45.194;9.142;2023-12-29T06:10:03;101439.44;;;10.78;67.94
79131;BME280;72396;45.194;9.142;2023-12-29T06:12:29;101451.66;;;10.83;68.08
79131;BME280;72396;45.194;9.142;2023-12-29T06:14:54;101445.69;;;10.74;68.40
79131;BME280;72396;45.194;9.142;2023-12-29T06:17:23;101449.16;;;10.76;68.53
79131;BME280;72396;45.194;9.142;2023-12-29T06:19:48;101446.69;;;10.69;69.09
79131;BME280;72396;45.194;9.142;2023-12-29T06:22:14;101443.38;;;10.59;69.17
79131;BME280;72396;45.194;9.142;2023-12-29T06:24:42;101426.50;;;10.66;68.67
79131;BME280;72396;45.194;9.142;2023-12-29T06:27:08;101446.59;;;10.73;68.46
79131;BME280;72396;45.194;9.142;2023-12-29T06:29:34;101443.56;;;10.90;68.42
79131;BME280;72396;45.194;9.142;2023-12-29T06:32:00;101436.53;;;11.29;67.10
79131;BME280;72396;45.194;9.142;2023-12-29T06:34:25;101424.72;;;11.07;67.33
79131;BME280;72396;45.194;9.142;2023-12-29T06:36:51;101428.69;;;10.88;67.89
79131;BME280;72396;45.194;9.142;2023-12-29T06:39:16;101439.06;;;10.96;67.99
79131;BME280;72396;45.194;9.142;2023-12-29T06:41:41;101431.91;;;10.99;67.72
79131;BME280;72396;45.194;9.142;2023-12-29T06:44:07;101428.56;;;10.92;67.98
79131;BME280;72396;45.194;9.142;2023-12-29T06:46:32;101415.50;;;10.88;67.79
79131;BME280;72396;45.194;9.142;2023-12-29T06:48:58;101423.34;;;10.89;67.88
79131;BME280;72396;45.194;9.142;2023-12-29T06:51:23;101419.78;;;10.92;67.64
79131;BME280;72396;45.194;9.142;2023-12-29T06:53:49;101416.22;;;10.94;67.70
79131;BME280;72396;45.194;9.142;2023-12-29T06:56:17;101421.16;;;10.69;68.57
79131;BME280;72396;45.194;9.142;2023-12-29T06:58:46;101405.50;;;10.63;68.35
79131;BME280;72396;45.194;9.142;2023-12-29T07:01:12;101422.69;;;10.79;68.10
79131;BME280;72396;45.194;9.142;2023-12-29T07:03:38;101411.31;;;10.77;68.41
79131;BME280;72396;45.194;9.142;2023-12-29T07:06:03;101419.78;;;10.92;68.11
79131;BME280;72396;45.194;9.142;2023-12-29T07:08:29;101418.97;;;10.88;67.77
79131;BME280;72396;45.194;9.142;2023-12-29T07:10:54;101427.72;;;10.92;67.77
79131;BME280;72396;45.194;9.142;2023-12-29T07:13:20;101428.72;;;10.85;68.07
79131;BME280;72396;45.194;9.142;2023-12-29T07:15:46;101432.16;;;10.90;67.93
79131;BME280;72396;45.194;9.142;2023-12-29T07:18:12;101430.66;;;10.78;68.27
79131;BME280;72396;45.194;9.142;2023-12-29T07:20:37;101440.16;;;10.85;68.09
79131;BME280;72396;45.194;9.142;2023-12-29T07:23:03;101443.63;;;10.89;68.00
79131;BME280;72396;45.194;9.142;2023-12-29T07:25:28;101436.88;;;10.75;68.20
79131;BME280;72396;45.194;9.142;2023-12-29T07:27:54;101439.38;;;10.82;68.23
79131;BME280;72396;45.194;9.142;2023-12-29T07:30:19;101452.56;;;10.82;68.33
79131;BME280;72396;45.194;9.142;2023-12-29T07:32:44;101438.47;;;10.83;68.26
79131;BME280;72396;45.194;9.142;2023-12-29T07:35:10;101451.56;;;10.86;67.97
79131;BME280;72396;45.194;9.142;2023-12-29T07:37:35;101456.84;;;10.87;68.77
79131;BME280;72396;45.194;9.142;2023-12-29T07:40:01;101454.09;;;10.92;68.12
79131;BME280;72396;45.194;9.142;2023-12-29T07:42:26;101450.88;;;10.79;69.09
79131;BME280;72396;45.194;9.142;2023-12-29T07:44:51;101448.16;;;10.82;68.72
79131;BME280;72396;45.194;9.142;2023-12-29T07:47:17;101456.84;;;10.86;68.74
79131;BME280;72396;45.194;9.142;2023-12-29T07:49:42;101444.72;;;10.78;68.61
79131;BME280;72396;45.194;9.142;2023-12-29T07:52:08;101443.91;;;10.75;68.47
79131;BME280;72396;45.194;9.142;2023-12-29T07:54:34;101456.84;;;10.86;68.69
79131;BME280;72396;45.194;9.142;2023-12-29T07:56:59;101467.38;;;10.89;68.56
79131;BME280;72396;45.194;9.142;2023-12-29T07:59:24;101464.97;;;10.78;69.13
79131;BME280;72396;45.194;9.142;2023-12-29T08:01:50;101450.97;;;10.74;69.03
79131;BME280;72396;45.194;9.142;2023-12-29T08:04:15;101465.72;;;10.83;68.60
79131;BME280;72396;45.194;9.142;2023-12-29T08:06:41;101469.38;;;10.76;68.90
79131;BME280;72396;45.194;9.142;2023-12-29T08:09:06;101468.53;;;10.75;69.24
79131;BME280;72396;45.194;9.142;2023-12-29T08:11:32;101465.00;;;10.76;69.01
79131;BME280;72396;45.194;9.142;2023-12-29T08:13:58;101468.28;;;10.88;68.98
79131;BME280;72396;45.194;9.142;2023-12-29T08:16:23;101453.38;;;10.84;68.47
79131;BME280;72396;45.194;9.142;2023-12-29T08:18:49;101477.13;;;10.84;68.74
79131;BME280;72396;45.194;9.142;2023-12-29T08:21:18;101483.59;;;10.70;69.29
79131;BME280;72396;45.194;9.142;2023-12-29T08:23:47;101470.19;;;10.79;68.98
79131;BME280;72396;45.194;9.142;2023-12-29T08:26:13;101464.00;;;10.82;68.91
79131;BME280;72396;45.194;9.142;2023-12-29T08:28:38;101470.03;;;10.86;68.58
79131;BME280;72396;45.194;9.142;2023-12-29T08:31:04;101469.09;;;10.90;68.86
79131;BME280;72396;45.194;9.142;2023-12-29T08:33:30;101463.09;;;10.82;68.99
79131;BME280;72396;45.194;9.142;2023-12-29T08:35:56;101463.09;;;10.82;68.69
79131;BME280;72396;45.194;9.142;2023-12-29T08:38:26;101456.31;;;10.71;69.17
79131;BME280;72396;45.194;9.142;2023-12-29T08:40:52;101470.13;;;10.83;69.15
79131;BME280;72396;45.194;9.142;2023-12-29T08:43:17;101465.81;;;10.78;68.89
79131;BME280;72396;45.194;9.142;2023-12-29T08:45:49;101481.50;;;10.85;69.25
79131;BME280;72396;45.194;9.142;2023-12-29T08:48:14;101475.97;;;10.97;69.23
79131;BME280;72396;45.194;9.142;2023-12-29T08:50:39;101478.56;;;10.99;68.91
79131;BME280;72396;45.194;9.142;2023-12-29T08:53:05;101485.75;;;10.92;68.70
79131;BME280;72396;45.194;9.142;2023-12-29T08:55:30;101495.34;;;10.96;68.85
79131;BME280;72396;45.194;9.142;2023-12-29T08:57:57;101488.31;;;10.97;68.75
79131;BME280;72396;45.194;9.142;2023-12-29T09:00:22;101474.28;;;10.94;68.82
79131;BME280;72396;45.194;9.142;2023-12-29T09:02:48;101482.06;;;10.99;68.46
79131;BME280;72396;45.194;9.142;2023-12-29T09:05:13;101484.63;;;11.02;68.69
79131;BME280;72396;45.194;9.142;2023-12-29T09:07:39;101495.19;;;11.02;68.49
79131;BME280;72396;45.194;9.142;2023-12-29T09:10:05;101496.97;;;11.02;69.32
79131;BME280;72396;45.194;9.142;2023-12-29T09:12:34;101500.47;;;11.02;68.90
79131;BME280;72396;45.194;9.142;2023-12-29T09:14:59;101490.06;;;10.96;69.03
79131;BME280;72396;45.194;9.142;2023-12-29T09:17:24;101496.06;;;11.04;68.88
79131;BME280;72396;45.194;9.142;2023-12-29T09:19:50;101494.44;;;10.97;69.00
79131;BME280;72396;45.194;9.142;2023-12-29T09:22:15;101511.94;;;11.01;69.36
79131;BME280;72396;45.194;9.142;2023-12-29T09:24:41;101513.53;;;11.08;69.53
79131;BME280;72396;45.194;9.142;2023-12-29T09:27:07;101515.44;;;11.03;69.43
79131;BME280;72396;45.194;9.142;2023-12-29T09:29:32;101510.19;;;11.02;69.71
79131;BME280;72396;45.194;9.142;2023-12-29T09:31:58;101518.19;;;10.97;69.73
79131;BME280;72396;45.194;9.142;2023-12-29T09:34:23;101510.28;;;10.97;70.24
79131;BME280;72396;45.194;9.142;2023-12-29T09:36:48;101514.41;;;11.09;70.02
79131;BME280;72396;45.194;9.142;2023-12-29T09:39:14;101519.72;;;11.07;69.89
79131;BME280;72396;45.194;9.142;2023-12-29T09:41:42;101518.81;;;11.08;69.84
79131;BME280;72396;45.194;9.142;2023-12-29T09:44:13;101518.81;;;11.08;70.11
79131;BME280;72396;45.194;9.142;2023-12-29T09:46:41;101526.78;;;11.07;70.54
79131;BME280;72396;45.194;9.142;2023-12-29T09:49:08;101523.28;;;11.05;70.60
79131;BME280;72396;45.194;9.142;2023-12-29T09:51:34;101511.94;;;11.01;70.96
79131;BME280;72396;45.194;9.142;2023-12-29T09:54:01;101520.66;;;11.05;70.77
79131;BME280;72396;45.194;9.142;2023-12-29T09:56:27;101524.19;;;11.05;70.80
79131;BME280;72396;45.194;9.142;2023-12-29T09:58:54;101520.75;;;11.00;70.58
79131;BME280;72396;45.194;9.142;2023-12-29T10:01:21;101516.31;;;11.02;70.67
79131;BME280;72396;45.194;9.142;2023-12-29T10:03:47;101513.53;;;11.08;70.17
79131;BME280;72396;45.194;9.142;2023-12-29T10:06:17;101506.66;;;11.01;70.19
79131;BME280;72396;45.194;9.142;2023-12-29T10:08:45;101521.38;;;11.13;70.08
79131;BME280;72396;45.194;9.142;2023-12-29T10:11:15;101504.19;;;10.93;70.88
79131;BME280;72396;45.194;9.142;2023-12-29T10:13:43;101501.44;;;11.00;70.48
79131;BME280;72396;45.194;9.142;2023-12-29T10:19:07;101510.97;;;11.05;70.96
79131;BME280;72396;45.194;9.142;2023-12-29T10:21:54;101487.22;;;11.05;70.71
79131;BME280;72396;45.194;9.142;2023-12-29T10:24:22;101500.25;;;11.13;70.27
79131;BME280;72396;45.194;9.142;2023-12-29T10:26:48;101497.63;;;11.12;70.22
79131;BME280;72396;45.194;9.142;2023-12-29T10:29:14;101492.28;;;11.15;70.11
79131;BME280;72396;45.194;9.142;2023-12-29T10:31:40;101477.25;;;11.18;70.26
79131;BME280;72396;45.194;9.142;2023-12-29T10:34:22;101486.22;;;11.11;70.60
79131;BME280;72396;45.194;9.142;2023-12-29T10:36:55;101480.81;;;11.16;70.40
79131;BME280;72396;45.194;9.142;2023-12-29T10:39:20;101471.31;;;11.08;70.44
79131;BME280;72396;45.194;9.142;2023-12-29T10:41:46;101485.09;;;11.21;70.43
79131;BME280;72396;45.194;9.142;2023-12-29T10:44:11;101482.53;;;11.17;70.22
79131;BME280;72396;45.194;9.142;2023-12-29T10:46:36;101483.31;;;11.22;69.94
79131;BME280;72396;45.194;9.142;2023-12-29T10:49:13;101477.97;;;11.25;70.27
79131;BME280;72396;45.194;9.142;2023-12-29T10:51:39;101475.44;;;11.20;70.22
79131;BME280;72396;45.194;9.142;2023-12-29T10:54:05;101463.22;;;11.15;70.15
79131;BME280;72396;45.194;9.142;2023-12-29T10:56:32;101470.16;;;11.19;70.35
79131;BME280;72396;45.194;9.142;2023-12-29T10:58:59;101475.34;;;11.23;70.65
79131;BME280;72396;45.194;9.142;2023-12-29T11:01:25;101463.13;;;11.19;70.77
79131;BME280;72396;45.194;9.142;2023-12-29T11:04:06;101467.53;;;11.19;70.87
79131;BME280;72396;45.194;9.142;2023-12-29T11:06:44;101460.38;;;11.24;70.80
79131;BME280;72396;45.194;9.142;2023-12-29T11:09:12;101463.28;;;11.13;71.21
79131;BME280;72396;45.194;9.142;2023-12-29T11:11:38;101462.31;;;11.16;71.00
79131;BME280;72396;45.194;9.142;2023-12-29T11:14:04;101448.19;;;11.18;71.01
79131;BME280;72396;45.194;9.142;2023-12-29T11:16:30;101460.47;;;11.21;71.02
79131;BME280;72396;45.194;9.142;2023-12-29T11:18:58;101450.91;;;11.15;70.43
79131;BME280;72396;45.194;9.142;2023-12-29T11:21:26;101454.31;;;11.20;70.23
79131;BME280;72396;45.194;9.142;2023-12-29T11:23:52;101436.72;;;11.19;70.21
79131;BME280;72396;45.194;9.142;2023-12-29T11:26:18;101440.31;;;11.17;70.98
79131;BME280;72396;45.194;9.142;2023-12-29T11:28:46;101432.38;;;11.17;70.67
79131;BME280;72396;45.194;9.142;2023-12-29T11:31:17;101437.66;;;11.17;70.80
79131;BME280;72396;45.194;9.142;2023-12-29T11:33:47;101427.25;;;11.11;71.18
79131;BME280;72396;45.194;9.142;2023-12-29T11:36:18;101426.28;;;11.15;71.02
79131;BME280;72396;45.194;9.142;2023-12-29T11:41:54;101417.34;;;11.20;70.14
79131;BME280;72396;45.194;9.142;2023-12-29T11:44:26;101417.31;;;11.22;70.03
79131;BME280;72396;45.194;9.142;2023-12-29T11:46:58;101413.16;;;11.12;70.35
79131;BME280;72396;45.194;9.142;2023-12-29T11:49:24;101421.00;;;11.15;70.69
79131;BME280;72396;45.194;9.142;2023-12-29T11:51:50;101414.72;;;11.19;70.42
79131;BME280;72396;45.194;9.142;2023-12-29T11:54:26;101406.06;;;11.14;70.93
79131;BME280;72396;45.194;9.142;2023-12-29T11:56:55;101402.56;;;11.13;70.36
79131;BME280;72396;45.194;9.142;2023-12-29T11:59:22;101406.78;;;11.20;70.32
79131;BME280;72396;45.194;9.142;2023-12-29T12:01:58;101408.50;;;11.23;70.24
79131;BME280;72396;45.194;9.142;2023-12-29T12:07:05;101406.88;;;11.16;71.13
79131;BME280;72396;45.194;9.142;2023-12-29T12:09:32;101412.09;;;11.19;70.60
79131;BME280;72396;45.194;9.142;2023-12-29T12:12:00;101394.69;;;11.10;70.43
79131;BME280;72396;45.194;9.142;2023-12-29T12:14:45;101397.31;;;11.12;70.26
79131;BME280;72396;45.194;9.142;2023-12-29T12:17:11;101382.47;;;11.07;70.70
79131;BME280;72396;45.194;9.142;2023-12-29T12:19:36;101370.19;;;11.06;70.52
79131;BME280;72396;45.194;9.142;2023-12-29T12:22:02;101371.91;;;11.07;70.87
79131;BME280;72396;45.194;9.142;2023-12-29T12:24:28;101362.41;;;11.00;71.01
79131;BME280;72396;45.194;9.142;2023-12-29T12:26:56;101378.66;;;11.19;70.51
79131;BME280;72396;45.194;9.142;2023-12-29T12:29:22;101372.56;;;11.16;70.94
79131;BME280;72396;45.194;9.142;2023-12-29T12:31:55;101366.56;;;11.11;70.53
79131;BME280;72396;45.194;9.142;2023-12-29T12:34:20;101348.06;;;11.11;70.51
79131;BME280;72396;45.194;9.142;2023-12-29T12:36:50;101355.28;;;11.04;71.05
79131;BME280;72396;45.194;9.142;2023-12-29T12:39:16;101351.50;;;11.14;70.93
79131;BME280;72396;45.194;9.142;2023-12-29T12:41:41;101356.66;;;11.19;71.13
79131;BME280;72396;45.194;9.142;2023-12-29T12:44:11;101350.41;;;11.23;71.08
79131;BME280;72396;45.194;9.142;2023-12-29T12:46:48;101333.94;;;11.13;70.45
79131;BME280;72396;45.194;9.142;2023-12-29T12:49:15;101353.13;;;11.20;70.75
79131;BME280;72396;45.194;9.142;2023-12-29T12:51:40;101349.59;;;11.21;70.57
79131;BME280;72396;45.194;9.142;2023-12-29T12:54:07;101336.38;;;11.21;70.58
79131;BME280;72396;45.194;9.142;2023-12-29T12:56:33;101338.13;;;11.22;70.64